Beverly Hills, CA (90210)

12:48 PM PST on November 25, 2014 (GMT -0800)
West Hollywood | Change Station
CLOSE
Current Station
Personal Weather Station
Location: West Hollywood, CA
Elevation: 217 ft
Nearby Weather Stations
Active Advisory: Fire Weather Watch Active Notice: Public Information Statement

Elev 217 ft 34.09 °N, 118.38 °W | Updated 7 minutes ago

Clear
Clear
81.2 °F
Feels Like 79 °F
N
0.0
Wind Variable Wind from ENE
Gusts 5.0 mph

Today
High -- | Low -- °F
--% Chance of Precip.
Yesterday
High -- | Low -- °F
Precip. -- in
6:35 AM 4:45 PM
Waxing Crescent, 13% visible
Pressure 30.32 in
Visibility 10.0 miles
Clouds Clear
Heat Index 79 °F
Dew Point 19 °F
Humidity 10%
Rainfall 0.07 in
Snow Depth Not available.
UV 4 out of 12
Pollen 2.60 out of 12
Air Quality Not available.
Flu Activity Not available.
METAR KSMO 251951Z VRB03KT 10SM CLR 26/M15 A3032 RMK AO2 SLP267 T02561150

More Conditions Fewer Conditions

Pressure 30.32 in
Visibility 10.0 miles
Clouds Clear
Heat Index 79 °F
Dew Point 19 °F
Humidity 10%
Rainfall 0.07 in
Snow Depth Not available.
UV 4 out of 12
Pollen 2.60 out of 12
Air Quality Not available.
Flu Activity Not available.
METAR KSMO 251951Z VRB03KT 10SM CLR 26/M15 A3032 RMK AO2 SLP267 T02561150

More Conditions Fewer Conditions

10-Day Weather Forecast

Almanac

Astronomy

Nov. 25, 2014 Rise Set
Actual Time
Civil Twilight
Nautical Twilight
Astronomical Twilight
Moon
Length of Visible Light
Length of Day
Tomorrow will be .
, % of the Moon is Illuminated

Today's Extremes

State Highs State Lows

Community

WunderPhotos

Upload Photos

1,773,585 photos uploaded!

WunderBlogs® & News

Nearby

Air Quality

  Air Quality AQ Index Pollutant
Not available.

Snow Depth

Station Depth Elevation

Earthquake Activity

City Distance Mag. Time & Date
Minimum magnitude displayed is 2.5.

Coastal Water Temperatures

Place Temperature

Nearby Weather Stations